Time;durP1;ratioP1;P1;durP2;ratioP2;P2;SDS_P1;SDS_P2;PMS_P1;PMS_P2;Temp;Humidity;BMP_temperature;BMP_pressure;BME280_temperature;BME280_humidity;BME280_pressure;Samples;Min_cycle;Max_cycle;Signal;HPM_P1;HPM_P2
2022/07/25 00:02:20;;;;;;;7.00;4.78;;;21.60;99.90;;;;;;5016064;28;20101;-92
2022/07/25 00:04:46;;;;;;;5.43;4.05;;;21.50;99.90;;;;;;5010025;28;20033;-93
2022/07/25 00:07:11;;;;;;;5.25;4.75;;;21.60;99.90;;;;;;5013301;28;20031;-94
2022/07/25 00:09:37;;;;;;;5.65;4.57;;;21.50;99.90;;;;;;5010511;28;20032;-93
2022/07/25 00:12:02;;;;;;;7.43;5.57;;;21.50;99.90;;;;;;5011223;28;20096;-93
2022/07/25 00:14:28;;;;;;;7.80;5.63;;;21.60;99.90;;;;;;5015071;28;20033;-92
2022/07/25 00:16:54;;;;;;;7.47;4.97;;;21.60;99.90;;;;;;5029375;28;20017;-93
2022/07/25 00:19:19;;;;;;;5.97;5.38;;;21.60;99.90;;;;;;5009179;28;20088;-92
2022/07/25 00:21:46;;;;;;;8.90;6.40;;;21.60;99.90;;;;;;5009079;28;20032;-93
2022/07/25 00:24:12;;;;;;;8.77;5.88;;;21.60;99.90;;;;;;5014141;28;20029;-91
2022/07/25 00:26:37;;;;;;;8.38;5.93;;;21.60;99.90;;;;;;5014598;28;20367;-92
2022/07/25 00:29:03;;;;;;;5.60;5.05;;;21.60;99.90;;;;;;5015780;28;20390;-92
2022/07/25 00:31:28;;;;;;;11.02;5.35;;;21.60;99.90;;;;;;5028350;28;20382;-89
2022/07/25 00:33:54;;;;;;;7.88;6.35;;;21.60;99.90;;;;;;5011487;28;20025;-90
2022/07/25 00:36:19;;;;;;;11.02;7.03;;;21.60;99.90;;;;;;5016517;28;20029;-92
2022/07/25 00:38:45;;;;;;;11.88;6.40;;;21.60;99.90;;;;;;5006958;28;20033;-93
2022/07/25 00:41:10;;;;;;;8.55;6.78;;;21.60;99.90;;;;;;5028012;28;20025;-93
2022/07/25 00:43:36;;;;;;;8.05;6.50;;;21.50;99.90;;;;;;5013533;28;20044;-93
2022/07/25 00:46:01;;;;;;;7.35;6.55;;;21.50;99.90;;;;;;5012850;28;20022;-92
2022/07/25 00:48:28;;;;;;;7.78;6.00;;;21.50;99.90;;;;;;5011007;28;20029;-93
2022/07/25 00:50:55;;;;;;;11.38;7.63;;;21.50;99.90;;;;;;5029151;28;20449;-92
2022/07/25 00:53:21;;;;;;;10.98;7.65;;;21.50;99.90;;;;;;5029448;28;20033;-93
2022/07/25 00:55:47;;;;;;;10.23;7.82;;;21.40;99.90;;;;;;5006622;28;20039;-90
2022/07/25 00:58:12;;;;;;;9.38;7.97;;;21.40;99.90;;;;;;5013094;28;20563;-91
2022/07/25 01:00:38;;;;;;;9.40;8.02;;;21.40;99.90;;;;;;5009218;28;20026;-90
2022/07/25 01:03:04;;;;;;;10.00;7.35;;;21.40;99.90;;;;;;5027449;28;20366;-91
2022/07/25 01:05:29;;;;;;;10.50;7.75;;;21.40;99.90;;;;;;5011927;28;20500;-93
2022/07/25 01:07:56;;;;;;;12.05;8.30;;;21.40;99.90;;;;;;5006892;28;20026;-93
2022/07/25 01:10:21;;;;;;;10.70;8.02;;;21.40;99.90;;;;;;5025107;28;20034;-92
2022/07/25 01:12:50;;;;;;;9.73;8.27;;;21.40;99.90;;;;;;5015077;28;20021;-93
2022/07/25 01:15:17;;;;;;;11.48;8.55;;;21.40;99.90;;;;;;5011587;28;20172;-93
2022/07/25 01:17:44;;;;;;;10.27;8.45;;;21.40;99.90;;;;;;5020946;28;20025;-93
2022/07/25 01:20:23;;;;;;;11.60;8.93;;;21.40;99.90;;;;;;5015020;28;20065;-93
2022/07/25 01:22:49;;;;;;;13.35;8.85;;;21.40;99.90;;;;;;5029767;28;20025;-92
2022/07/25 01:25:15;;;;;;;11.02;9.10;;;21.30;99.90;;;;;;5011420;28;20087;-93
2022/07/25 01:27:42;;;;;;;13.23;8.63;;;21.30;99.90;;;;;;5013431;28;20497;-93
2022/07/25 01:30:10;;;;;;;10.18;8.50;;;21.30;99.90;;;;;;5025187;28;20025;-93
2022/07/25 01:32:36;;;;;;;11.80;9.02;;;21.40;99.90;;;;;;5028762;28;20036;-89
2022/07/25 01:35:03;;;;;;;11.27;9.15;;;21.30;99.90;;;;;;5014226;28;20109;-90
2022/07/25 01:37:29;;;;;;;12.52;9.10;;;21.30;99.90;;;;;;5015826;28;20036;-90
2022/07/25 01:39:54;;;;;;;11.68;9.45;;;21.40;99.90;;;;;;5016935;28;20035;-90
2022/07/25 01:42:20;;;;;;;12.00;9.02;;;21.30;99.90;;;;;;5027304;28;20022;-89
2022/07/25 01:44:45;;;;;;;12.20;9.77;;;21.30;99.90;;;;;;5030566;28;20033;-92
2022/07/25 01:47:11;;;;;;;11.45;9.52;;;21.30;99.90;;;;;;5012723;28;20073;-94
2022/07/25 01:49:36;;;;;;;10.52;9.43;;;21.30;99.90;;;;;;5006395;28;20060;-93
2022/07/25 01:52:02;;;;;;;11.98;9.90;;;21.30;99.90;;;;;;5026711;28;20041;-93
2022/07/25 01:54:28;;;;;;;12.60;10.23;;;21.30;99.90;;;;;;5007639;28;20022;-94
2022/07/25 01:56:53;;;;;;;12.43;10.10;;;21.30;99.90;;;;;;5023627;28;20034;-93
2022/07/25 01:59:19;;;;;;;12.35;9.98;;;21.30;99.90;;;;;;5013514;28;20045;-90
2022/07/25 02:01:45;;;;;;;12.02;10.00;;;21.30;99.90;;;;;;5010352;28;20037;-92
2022/07/25 02:04:10;;;;;;;15.10;10.65;;;21.30;99.90;;;;;;5008516;28;20112;-93
2022/07/25 02:06:36;;;;;;;11.60;9.63;;;21.30;99.90;;;;;;5011432;28;20026;-93
2022/07/25 02:09:03;;;;;;;10.82;9.57;;;21.30;99.90;;;;;;5014818;28;20032;-93
2022/07/25 02:11:28;;;;;;;14.27;9.88;;;21.30;99.90;;;;;;5013112;28;20037;-93
2022/07/25 02:13:54;;;;;;;11.75;9.90;;;21.30;99.90;;;;;;5008789;28;20029;-93
2022/07/25 02:16:19;;;;;;;11.05;9.27;;;21.30;99.90;;;;;;5013699;28;20140;-94
2022/07/25 02:18:45;;;;;;;10.52;8.90;;;21.30;99.90;;;;;;5014547;28;20029;-93
2022/07/25 02:21:11;;;;;;;12.02;8.85;;;21.30;99.90;;;;;;5011279;28;20425;-94
2022/07/25 02:23:36;;;;;;;12.95;9.07;;;21.30;99.90;;;;;;5011578;28;20036;-93
2022/07/25 02:26:03;;;;;;;12.40;9.02;;;21.30;99.90;;;;;;5012153;28;20026;-94
2022/07/25 02:28:28;;;;;;;12.65;9.88;;;21.30;99.90;;;;;;5013047;28;20025;-93
2022/07/25 02:30:54;;;;;;;10.32;9.13;;;21.30;99.90;;;;;;5012007;28;20022;-94
2022/07/25 02:33:20;;;;;;;10.02;8.57;;;21.30;99.90;;;;;;5009991;28;20034;-94
2022/07/25 02:35:45;;;;;;;10.32;9.07;;;21.30;99.90;;;;;;5010587;28;20438;-93
2022/07/25 02:38:18;;;;;;;11.80;9.77;;;21.30;99.90;;;;;;5010911;28;20120;-94
2022/07/25 02:40:47;;;;;;;12.40;9.60;;;21.30;99.90;;;;;;5029202;28;20068;-93
2022/07/25 02:43:13;;;;;;;13.88;9.82;;;21.30;99.90;;;;;;5014078;28;20548;-93
2022/07/25 02:45:38;;;;;;;12.45;9.43;;;21.30;99.90;;;;;;5009958;28;20101;-93
2022/07/25 02:48:04;;;;;;;12.48;9.30;;;21.20;99.90;;;;;;5013209;28;20088;-93
2022/07/25 02:50:30;;;;;;;12.20;9.05;;;21.20;99.90;;;;;;5008582;28;20026;-93
2022/07/25 02:52:55;;;;;;;13.55;9.35;;;21.20;99.90;;;;;;5011486;28;20435;-92
2022/07/25 02:55:21;;;;;;;11.77;9.68;;;21.20;99.90;;;;;;5012895;28;20093;-92
2022/07/25 02:57:46;;;;;;;11.88;9.75;;;21.20;99.90;;;;;;5021872;28;20030;-93
2022/07/25 03:00:13;;;;;;;13.57;8.73;;;21.20;99.90;;;;;;5009265;28;20067;-93
2022/07/25 03:02:39;;;;;;;11.25;8.93;;;21.20;99.90;;;;;;5013916;28;20347;-94
2022/07/25 03:05:09;;;;;;;11.52;9.90;;;21.20;99.90;;;;;;5031646;28;20044;-94
2022/07/25 03:07:35;;;;;;;11.30;9.38;;;21.10;99.90;;;;;;5012212;28;20021;-94
2022/07/25 03:10:02;;;;;;;12.63;9.77;;;21.10;99.90;;;;;;5017116;28;20393;-92
2022/07/25 03:12:28;;;;;;;13.00;9.77;;;21.10;99.90;;;;;;5014197;28;20031;-93
2022/07/25 03:14:53;;;;;;;13.10;10.05;;;21.10;99.90;;;;;;5012737;28;20025;-93
2022/07/25 03:17:19;;;;;;;10.85;9.75;;;21.00;99.90;;;;;;5014640;28;20128;-92
2022/07/25 03:19:44;;;;;;;12.02;9.38;;;21.00;99.90;;;;;;5014329;28;20512;-93
2022/07/25 03:22:10;;;;;;;12.32;9.88;;;21.00;99.90;;;;;;5030257;28;20035;-93
2022/07/25 03:24:35;;;;;;;14.85;10.32;;;21.00;99.90;;;;;;5014232;28;20021;-93
2022/07/25 03:27:01;;;;;;;14.48;10.25;;;20.90;99.90;;;;;;5014747;28;20029;-93
2022/07/25 03:29:26;;;;;;;12.93;9.68;;;20.90;99.90;;;;;;5012555;28;20543;-93
2022/07/25 03:31:52;;;;;;;11.98;8.80;;;20.90;99.90;;;;;;5030320;28;20081;-92
2022/07/25 03:34:18;;;;;;;11.93;9.73;;;20.90;99.90;;;;;;5014167;28;20124;-90
2022/07/25 03:36:43;;;;;;;15.55;10.23;;;20.90;99.90;;;;;;5013409;28;20017;-92
2022/07/25 03:39:09;;;;;;;12.65;10.23;;;20.90;99.90;;;;;;5008613;28;20512;-92
2022/07/25 03:41:34;;;;;;;15.25;10.85;;;20.80;99.90;;;;;;5011395;28;20022;-94
2022/07/25 03:44:00;;;;;;;13.85;10.43;;;20.80;99.90;;;;;;5015294;28;20030;-92
2022/07/25 03:46:25;;;;;;;12.40;10.20;;;20.80;99.90;;;;;;5006446;28;20041;-90
2022/07/25 03:48:51;;;;;;;13.52;9.80;;;20.80;99.90;;;;;;5027802;28;20114;-93
2022/07/25 03:51:16;;;;;;;14.63;9.77;;;20.80;99.90;;;;;;5014600;28;20080;-92
2022/07/25 03:56:30;;;;;;;13.25;9.98;;;20.80;99.90;;;;;;5029528;28;20090;-92
2022/07/25 03:58:55;;;;;;;13.02;9.70;;;20.70;99.90;;;;;;5024959;28;20380;-92
2022/07/25 04:01:21;;;;;;;12.00;9.68;;;20.70;99.90;;;;;;5014040;28;20137;-89
2022/07/25 04:03:46;;;;;;;14.48;10.07;;;20.70;99.90;;;;;;5012488;28;20493;-93
2022/07/25 04:06:12;;;;;;;14.82;10.85;;;20.70;99.90;;;;;;5010677;28;20418;-89
2022/07/25 04:08:37;;;;;;;11.82;10.50;;;20.70;99.90;;;;;;5011061;28;20033;-89
2022/07/25 04:11:03;;;;;;;13.20;10.25;;;20.70;99.90;;;;;;5007266;28;20026;-88
2022/07/25 04:13:29;;;;;;;14.48;10.35;;;20.70;99.90;;;;;;5012027;28;20444;-92
2022/07/25 04:15:55;;;;;;;16.10;11.23;;;20.70;99.90;;;;;;5012091;28;20021;-92
2022/07/25 04:18:20;;;;;;;14.38;10.55;;;20.70;99.90;;;;;;5011590;28;20128;-92
2022/07/25 04:20:46;;;;;;;13.05;10.32;;;20.70;99.90;;;;;;5013054;28;20371;-93
2022/07/25 04:23:11;;;;;;;13.65;10.77;;;20.70;99.90;;;;;;5012021;28;20477;-92
2022/07/25 04:25:37;;;;;;;15.93;10.63;;;20.70;99.90;;;;;;5011156;28;20026;-93
2022/07/25 04:28:02;;;;;;;12.73;10.73;;;20.80;99.90;;;;;;5009163;28;20067;-92
2022/07/25 04:30:28;;;;;;;15.05;10.52;;;20.80;99.90;;;;;;5011746;28;20021;-91
2022/07/25 04:32:54;;;;;;;14.68;11.07;;;20.80;99.90;;;;;;5011047;28;20381;-91
2022/07/25 04:35:19;;;;;;;11.75;9.77;;;20.80;99.90;;;;;;5008622;28;20032;-90
2022/07/25 04:37:45;;;;;;;15.32;10.38;;;20.80;99.90;;;;;;5022033;28;20021;-91
2022/07/25 04:40:11;;;;;;;11.65;10.45;;;20.90;99.90;;;;;;5018386;28;20039;-91
2022/07/25 04:42:36;;;;;;;12.05;9.75;;;20.90;99.90;;;;;;5012328;28;20032;-91
2022/07/25 04:45:03;;;;;;;13.52;9.75;;;21.00;99.90;;;;;;5010745;28;20072;-90
2022/07/25 04:47:28;;;;;;;12.90;10.07;;;21.00;99.90;;;;;;5012851;28;20068;-90
2022/07/25 04:49:54;;;;;;;14.27;10.07;;;21.10;99.90;;;;;;5010754;28;20483;-90
2022/07/25 04:52:20;;;;;;;12.45;9.82;;;21.10;99.90;;;;;;5011114;28;20034;-91
2022/07/25 04:54:45;;;;;;;13.15;9.95;;;21.10;99.90;;;;;;5005792;28;20029;-89
2022/07/25 04:57:11;;;;;;;14.68;10.77;;;21.20;99.90;;;;;;5007499;28;20184;-92
2022/07/25 04:59:36;;;;;;;12.57;10.48;;;21.30;99.90;;;;;;5011681;28;20038;-91
2022/07/25 05:02:02;;;;;;;11.20;9.45;;;21.40;99.90;;;;;;5010771;28;20121;-91
2022/07/25 05:04:27;;;;;;;16.00;11.50;;;21.40;99.90;;;;;;5007023;28;20041;-92
2022/07/25 05:06:53;;;;;;;13.38;10.43;;;21.50;99.90;;;;;;5023633;28;20461;-91
2022/07/25 05:09:19;;;;;;;15.48;10.68;;;21.60;99.90;;;;;;5010658;28;20593;-90
2022/07/25 05:11:44;;;;;;;13.70;10.20;;;21.60;99.90;;;;;;5011539;28;20029;-91
2022/07/25 05:14:10;;;;;;;12.25;9.50;;;21.70;99.90;;;;;;5010833;28;20032;-91
2022/07/25 05:16:35;;;;;;;11.25;9.13;;;21.70;99.90;;;;;;5010610;28;20026;-91
2022/07/25 05:19:01;;;;;;;13.82;9.48;;;21.80;99.90;;;;;;5007632;28;20038;-91
2022/07/25 05:21:26;;;;;;;10.27;8.15;;;21.90;99.90;;;;;;5013515;28;20031;-91
2022/07/25 05:23:52;;;;;;;15.48;9.65;;;21.90;99.90;;;;;;5012570;28;20048;-91
2022/07/25 05:26:17;;;;;;;16.77;9.80;;;22.00;99.90;;;;;;5010868;28;20025;-91
2022/07/25 05:28:43;;;;;;;13.48;9.00;;;22.00;99.90;;;;;;5012347;28;20076;-89
2022/07/25 05:31:09;;;;;;;12.27;9.63;;;22.10;99.90;;;;;;5013386;28;20439;-88
2022/07/25 05:33:34;;;;;;;13.98;9.43;;;22.10;99.90;;;;;;5004458;28;20462;-89
2022/07/25 05:36:02;;;;;;;16.45;9.80;;;22.20;99.90;;;;;;5007573;28;20039;-88
2022/07/25 05:38:27;;;;;;;9.45;8.43;;;22.30;99.90;;;;;;5009738;28;20399;-88
2022/07/25 05:40:53;;;;;;;12.10;8.65;;;22.30;99.90;;;;;;5002498;28;20055;-88
2022/07/25 05:43:19;;;;;;;10.60;8.57;;;22.40;99.90;;;;;;5013642;28;20132;-88
2022/07/25 05:45:46;;;;;;;11.45;7.93;;;22.50;99.90;;;;;;5012508;28;20021;-87
2022/07/25 05:48:12;;;;;;;10.05;7.43;;;22.60;99.90;;;;;;5007036;28;20050;-87
2022/07/25 05:50:38;;;;;;;9.55;6.65;;;22.80;99.90;;;;;;5026400;28;20044;-87
2022/07/25 05:53:03;;;;;;;9.23;6.88;;;22.90;99.90;;;;;;5029042;28;20030;-90
2022/07/25 05:55:29;;;;;;;6.95;6.00;;;23.00;99.90;;;;;;5045047;28;20028;-90
2022/07/25 05:57:55;;;;;;;9.10;6.22;;;23.10;99.50;;;;;;5035175;28;20021;-91
2022/07/25 06:00:20;;;;;;;7.75;5.35;;;23.20;99.20;;;;;;5035893;28;20124;-91
2022/07/25 06:02:46;;;;;;;7.97;5.70;;;23.30;98.80;;;;;;5035631;28;20049;-92
2022/07/25 06:05:11;;;;;;;14.35;6.07;;;23.30;98.50;;;;;;5036393;28;20029;-91
2022/07/25 06:07:37;;;;;;;10.55;6.18;;;23.30;98.30;;;;;;5042661;28;20062;-90
2022/07/25 06:10:04;;;;;;;11.48;5.82;;;23.40;98.10;;;;;;5045756;28;20059;-92
2022/07/25 06:12:29;;;;;;;9.52;6.65;;;23.40;97.90;;;;;;5043304;28;20043;-90
2022/07/25 06:14:55;;;;;;;10.10;6.15;;;23.40;97.70;;;;;;5040826;28;20017;-90
2022/07/25 06:17:20;;;;;;;8.52;6.65;;;23.50;97.70;;;;;;5034654;28;20027;-91
2022/07/25 06:19:46;;;;;;;9.68;7.20;;;23.60;97.60;;;;;;5043925;28;20040;-91
2022/07/25 06:22:12;;;;;;;10.20;7.35;;;23.70;97.40;;;;;;5051450;28;20021;-91
2022/07/25 06:24:38;;;;;;;9.02;7.25;;;23.70;97.30;;;;;;5032803;28;20477;-91
2022/07/25 06:27:04;;;;;;;9.75;7.53;;;23.70;97.20;;;;;;5034430;28;20033;-90
2022/07/25 06:29:29;;;;;;;12.05;7.28;;;23.60;97.30;;;;;;5030277;28;20512;-91
2022/07/25 06:31:55;;;;;;;11.02;7.45;;;23.60;97.30;;;;;;5052252;28;20021;-91
2022/07/25 06:34:20;;;;;;;10.57;7.13;;;23.60;97.30;;;;;;5038300;28;20032;-91
2022/07/25 06:36:46;;;;;;;8.88;6.97;;;23.60;97.20;;;;;;5033932;28;20111;-90
2022/07/25 06:39:14;;;;;;;9.35;6.63;;;23.60;97.30;;;;;;5060648;28;20505;-92
2022/07/25 06:41:39;;;;;;;11.77;6.50;;;23.70;97.30;;;;;;5052792;28;20048;-91
2022/07/25 06:44:05;;;;;;;7.93;6.35;;;23.60;97.00;;;;;;5057673;28;20036;-91
2022/07/25 06:46:31;;;;;;;7.80;5.97;;;23.60;97.00;;;;;;5041872;28;20049;-91
2022/07/25 06:48:58;;;;;;;10.60;6.32;;;23.50;97.00;;;;;;5037492;28;20083;-90
2022/07/25 06:51:24;;;;;;;8.77;6.47;;;23.40;97.10;;;;;;5027315;28;20036;-90
2022/07/25 06:53:49;;;;;;;8.98;6.82;;;23.40;97.20;;;;;;5042747;28;20029;-90
2022/07/25 06:56:15;;;;;;;8.77;6.13;;;23.30;97.40;;;;;;5051469;28;20033;-90
2022/07/25 06:58:40;;;;;;;9.63;6.47;;;23.20;97.50;;;;;;5037846;28;20025;-90
2022/07/25 07:01:06;;;;;;;8.75;6.47;;;23.20;97.70;;;;;;5050528;28;20036;-89
2022/07/25 07:03:36;;;;;;;7.68;6.60;;;23.30;97.90;;;;;;5034785;28;20033;-89
2022/07/25 07:06:06;;;;;;;8.73;6.50;;;23.40;97.80;;;;;;5049687;28;20017;-89
2022/07/25 07:08:32;;;;;;;10.20;7.68;;;23.60;97.90;;;;;;5027305;28;20059;-88
2022/07/25 07:10:58;;;;;;;8.30;6.28;;;23.70;97.60;;;;;;5051742;28;20021;-88
2022/07/25 07:13:23;;;;;;;9.38;5.28;;;23.80;97.50;;;;;;5032218;28;20094;-88
2022/07/25 07:15:49;;;;;;;8.50;5.63;;;23.90;97.70;;;;;;5032514;28;20049;-88
2022/07/25 07:18:19;;;;;;;8.88;6.03;;;24.00;97.70;;;;;;5050987;28;20068;-88
2022/07/25 07:20:45;;;;;;;8.98;5.15;;;24.20;97.50;;;;;;5043941;28;20064;-88
2022/07/25 07:23:14;;;;;;;8.18;5.03;;;24.20;97.30;;;;;;5043174;28;20025;-90
2022/07/25 07:25:40;;;;;;;7.18;5.28;;;24.30;97.30;;;;;;5040358;28;20041;-90
2022/07/25 07:28:06;;;;;;;7.03;5.10;;;24.30;97.40;;;;;;5045963;28;20036;-90
2022/07/25 07:30:32;;;;;;;6.20;4.60;;;24.30;97.40;;;;;;5054000;28;20021;-90
2022/07/25 07:32:58;;;;;;;8.77;4.47;;;24.30;97.20;;;;;;5044937;28;20063;-88
2022/07/25 07:35:24;;;;;;;5.60;4.50;;;24.30;97.30;;;;;;5037320;28;20025;-90
2022/07/25 07:37:51;;;;;;;5.78;4.03;;;24.30;97.10;;;;;;5048626;28;20032;-90
2022/07/25 07:40:17;;;;;;;7.53;5.05;;;24.30;97.00;;;;;;5032566;28;20040;-89
2022/07/25 07:42:47;;;;;;;8.20;3.50;;;24.30;97.00;;;;;;5034301;28;20032;-89
2022/07/25 07:45:18;;;;;;;3.70;3.40;;;24.40;96.70;;;;;;5049350;28;20119;-89
2022/07/25 07:47:46;;;;;;;4.97;3.03;;;24.50;96.70;;;;;;5031006;28;20057;-89
2022/07/25 07:50:14;;;;;;;4.68;3.00;;;24.70;96.60;;;;;;5060231;28;20109;-88
2022/07/25 07:52:41;;;;;;;6.05;2.92;;;24.80;96.20;;;;;;5053876;28;20024;-89
2022/07/25 07:57:51;;;;;;;5.50;1.52;;;25.10;95.60;;;;;;5055558;28;20048;-88
2022/07/25 08:00:18;;;;;;;3.55;1.40;;;25.20;95.00;;;;;;5056908;28;20021;-88
2022/07/25 08:02:49;;;;;;;2.17;1.35;;;25.30;94.60;;;;;;5068572;28;20025;-90
2022/07/25 08:05:24;;;;;;;3.97;1.17;;;25.30;94.60;;;;;;5038079;28;20029;-89
2022/07/25 08:07:51;;;;;;;2.70;0.90;;;25.30;94.50;;;;;;5055345;28;20032;-88
2022/07/25 08:10:22;;;;;;;1.75;0.90;;;25.20;94.30;;;;;;5051704;28;20033;-90
2022/07/25 08:12:48;;;;;;;1.92;0.50;;;25.10;94.20;;;;;;5035983;28;20025;-90
2022/07/25 08:15:14;;;;;;;2.65;0.77;;;25.00;94.10;;;;;;5028782;28;20083;-88
2022/07/25 08:17:39;;;;;;;2.75;0.50;;;25.00;94.00;;;;;;5037567;28;20107;-89
2022/07/25 08:20:07;;;;;;;2.72;0.50;;;25.10;94.00;;;;;;5038069;28;20041;-89
2022/07/25 08:22:59;;;;;;;2.22;0.50;;;25.30;93.80;;;;;;5036366;28;20040;-88
2022/07/25 08:25:24;;;;;;;4.30;0.50;;;25.70;93.40;;;;;;5034676;28;20041;-88
2022/07/25 08:27:52;;;;;;;2.28;0.47;;;25.90;92.90;;;;;;5037598;28;20124;-88
2022/07/25 08:30:17;;;;;;;4.22;0.40;;;26.00;92.70;;;;;;5038095;28;20031;-89
2022/07/25 08:32:58;;;;;;;2.53;0.30;;;26.10;92.70;;;;;;5033909;28;20044;-88
2022/07/25 08:35:25;;;;;;;1.67;0.30;;;26.10;92.40;;;;;;5032132;28;20032;-89
2022/07/25 08:37:51;;;;;;;3.75;0.50;;;26.00;92.50;;;;;;5036551;28;20033;-88
2022/07/25 08:40:20;;;;;;;1.90;0.50;;;26.00;92.70;;;;;;5043769;28;20025;-89
2022/07/25 08:42:46;;;;;;;1.40;0.30;;;26.00;92.90;;;;;;5050503;28;20481;-90
2022/07/25 08:45:15;;;;;;;1.90;0.30;;;25.90;93.00;;;;;;5049772;28;20104;-89
2022/07/25 08:47:40;;;;;;;3.72;0.63;;;26.00;93.30;;;;;;5038108;28;20041;-89
2022/07/25 08:50:09;;;;;;;4.18;0.38;;;26.10;93.40;;;;;;5037148;28;20115;-89
2022/07/25 08:52:36;;;;;;;1.92;0.40;;;26.10;93.40;;;;;;5037585;28;20025;-88
2022/07/25 08:55:08;;;;;;;3.38;0.30;;;26.10;93.30;;;;;;5033989;28;20389;-89
2022/07/25 08:57:35;;;;;;;1.40;0.30;;;26.00;93.40;;;;;;5040531;28;20020;-91
2022/07/25 09:00:02;;;;;;;1.85;0.40;;;26.00;93.70;;;;;;5056373;28;20036;-91
2022/07/25 09:02:28;;;;;;;2.95;0.30;;;25.90;93.70;;;;;;5048732;28;20107;-89
2022/07/25 09:04:56;;;;;;;3.75;0.45;;;25.90;93.60;;;;;;5067451;28;20148;-90
2022/07/25 09:07:39;;;;;;;3.22;0.45;;;25.80;93.80;;;;;;5041358;28;20468;-90
2022/07/25 09:10:35;;;;;;;2.83;0.40;;;26.00;94.00;;;;;;5040124;28;20393;-89
2022/07/25 09:13:07;;;;;;;1.55;0.30;;;26.20;93.70;;;;;;5042075;28;20033;-89
2022/07/25 09:15:34;;;;;;;2.50;0.20;;;26.40;93.40;;;;;;5039738;28;20029;-88
2022/07/25 09:18:04;;;;;;;1.73;0.43;;;26.40;93.30;;;;;;5024616;28;20036;-85
2022/07/25 09:20:37;;;;;;;0.93;0.20;;;26.30;93.10;;;;;;5031831;28;20036;-89
2022/07/25 09:23:03;;;;;;;4.57;0.38;;;26.30;93.20;;;;;;5041479;28;20030;-89
2022/07/25 09:25:28;;;;;;;3.60;0.30;;;26.30;93.30;;;;;;5040509;28;20515;-88
2022/07/25 09:27:55;;;;;;;1.40;0.22;;;26.20;92.70;;;;;;5039596;28;20030;-88
2022/07/25 09:30:21;;;;;;;2.05;0.30;;;26.10;92.90;;;;;;5036958;28;20035;-89
2022/07/25 09:32:58;;;;;;;2.28;0.50;;;26.10;93.30;;;;;;5047626;28;20089;-86
2022/07/25 09:35:37;;;;;;;2.17;0.40;;;26.10;93.40;;;;;;5037325;28;20036;-90
2022/07/25 09:38:11;;;;;;;2.75;0.60;;;26.10;93.50;;;;;;5036162;28;20061;-89
2022/07/25 09:40:37;;;;;;;3.58;0.30;;;26.20;93.40;;;;;;5037621;28;20028;-91
2022/07/25 09:43:03;;;;;;;3.55;0.30;;;26.30;93.30;;;;;;5040141;28;20116;-90
2022/07/25 09:45:28;;;;;;;2.10;0.63;;;26.40;92.40;;;;;;5038152;28;20068;-89
2022/07/25 09:48:02;;;;;;;3.90;0.40;;;26.30;92.30;;;;;;5054969;28;20493;-89
2022/07/25 09:50:30;;;;;;;1.45;0.38;;;26.10;92.40;;;;;;5034746;28;21683;-90
2022/07/25 09:52:59;;;;;;;1.92;0.40;;;25.90;92.80;;;;;;5043609;28;20020;-89
2022/07/25 09:55:25;;;;;;;5.82;0.82;;;25.80;93.30;;;;;;5031773;28;20025;-88
2022/07/25 09:57:53;;;;;;;4.60;0.50;;;25.90;93.60;;;;;;5027982;28;20017;-90
2022/07/25 10:00:25;;;;;;;1.92;0.40;;;26.10;93.40;;;;;;5032030;28;20021;-90
2022/07/25 10:03:00;;;;;;;;;;;26.30;92.50;;;;;;5040538;28;20036;-90
2022/07/25 10:05:55;;;;;;;2.67;0.30;;;26.40;92.30;;;;;;5034701;28;19909;-90
2022/07/25 10:08:22;;;;;;;1.90;0.50;;;26.60;91.70;;;;;;5063274;28;20020;-89
2022/07/25 10:10:48;;;;;;;2.47;0.52;;;26.70;91.00;;;;;;5015116;28;20079;-89
2022/07/25 10:13:16;;;;;;;3.33;0.50;;;26.90;90.60;;;;;;5034543;28;20032;-88
2022/07/25 10:15:49;;;;;;;3.50;0.60;;;26.90;90.00;;;;;;5047988;28;20044;-90
2022/07/25 10:18:20;;;;;;;3.20;0.50;;;26.80;90.00;;;;;;5035238;28;20064;-89
2022/07/25 10:20:48;;;;;;;2.00;0.50;;;26.80;90.40;;;;;;5035026;28;20500;-89
2022/07/25 10:23:24;;;;;;;2.75;0.50;;;27.00;91.00;;;;;;5035253;28;20492;-89
2022/07/25 10:26:12;;;;;;;3.13;0.50;;;27.30;90.50;;;;;;5032507;28;20029;-89
2022/07/25 10:28:41;;;;;;;3.30;0.50;;;27.40;90.20;;;;;;5038582;28;20498;-89
2022/07/25 10:31:21;;;;;;;1.88;0.40;;;27.30;90.00;;;;;;5052643;28;20028;-90
2022/07/25 10:33:54;;;;;;;3.28;0.30;;;27.40;89.90;;;;;;5033266;28;20021;-89
2022/07/25 10:36:21;;;;;;;3.20;0.40;;;27.60;88.30;;;;;;5025758;28;20029;-90
2022/07/25 10:38:50;;;;;;;2.03;0.43;;;27.60;86.70;;;;;;5035076;28;20037;-90
2022/07/25 10:41:16;;;;;;;3.20;0.40;;;27.60;86.10;;;;;;5048887;28;20389;-90
2022/07/25 10:43:44;;;;;;;2.95;0.38;;;27.50;86.30;;;;;;5021205;28;20026;-90
2022/07/25 10:46:16;;;;;;;4.78;0.50;;;27.40;86.00;;;;;;5033521;28;20443;-89
2022/07/25 10:48:42;;;;;;;2.92;0.50;;;27.40;85.40;;;;;;5052816;28;20025;-89
2022/07/25 10:51:10;;;;;;;2.30;0.30;;;27.40;85.50;;;;;;5034813;28;20040;-89
2022/07/25 10:53:39;;;;;;;1.75;0.40;;;27.50;85.20;;;;;;5033864;28;20031;-88
2022/07/25 10:56:12;;;;;;;1.92;0.60;;;27.50;84.50;;;;;;5030704;28;20086;-90
2022/07/25 10:58:56;;;;;;;4.05;0.30;;;27.50;84.50;;;;;;5070170;28;20036;-89
2022/07/25 11:01:24;;;;;;;2.97;0.40;;;27.40;85.00;;;;;;5061589;28;20059;-89
2022/07/25 11:03:52;;;;;;;5.40;0.70;;;27.50;84.60;;;;;;5054964;28;20031;-88
2022/07/25 11:06:35;;;;;;;6.25;0.60;;;27.60;84.20;;;;;;5039725;28;20040;-89
2022/07/25 11:09:03;;;;;;;3.33;0.68;;;27.80;84.20;;;;;;5025095;28;20025;-88
2022/07/25 11:11:35;;;;;;;2.08;0.40;;;27.90;83.80;;;;;;5030381;28;20039;-89
2022/07/25 11:14:00;;;;;;;4.65;0.50;;;27.90;83.70;;;;;;5046191;28;20112;-88
2022/07/25 11:16:26;;;;;;;3.60;0.60;;;27.90;84.00;;;;;;5034372;28;20460;-88
2022/07/25 11:18:53;;;;;;;4.03;0.60;;;27.90;83.30;;;;;;5068549;28;20492;-89
2022/07/25 11:21:19;;;;;;;5.25;0.70;;;27.90;81.70;;;;;;5047961;28;20049;-88
2022/07/25 11:23:49;;;;;;;4.07;0.90;;;27.70;81.90;;;;;;5031671;28;20067;-88
2022/07/25 11:26:15;;;;;;;4.53;0.98;;;27.60;82.30;;;;;;5045281;28;20108;-87
2022/07/25 11:28:48;;;;;;;5.47;0.70;;;27.50;82.60;;;;;;5048102;28;20052;-88
2022/07/25 11:31:16;;;;;;;4.72;0.65;;;27.40;82.90;;;;;;5048665;28;20020;-87
2022/07/25 11:33:45;;;;;;;6.18;0.70;;;27.30;83.60;;;;;;5057464;28;20112;-89
2022/07/25 11:36:11;;;;;;;4.65;0.70;;;27.20;84.50;;;;;;5038023;28;20056;-88
2022/07/25 11:38:39;;;;;;;3.60;0.60;;;27.10;84.90;;;;;;5033454;28;20103;-89
2022/07/25 11:41:05;;;;;;;3.17;0.80;;;27.00;85.00;;;;;;5034131;28;20021;-89
2022/07/25 11:43:32;;;;;;;3.15;0.70;;;26.80;85.50;;;;;;5034893;28;20021;-88
2022/07/25 11:46:06;;;;;;;4.57;0.77;;;26.60;85.60;;;;;;5052781;28;20099;-88
2022/07/25 11:48:37;;;;;;;2.17;0.60;;;26.20;85.30;;;;;;5058855;28;20040;-88
2022/07/25 11:51:17;;;;;;;3.90;0.80;;;26.00;85.80;;;;;;5076098;28;20087;-87
2022/07/25 11:53:50;;;;;;;2.65;0.57;;;26.00;86.10;;;;;;5051730;28;20017;-88
2022/07/25 11:56:21;;;;;;;4.10;1.00;;;25.90;87.30;;;;;;5041778;28;20493;-88
2022/07/25 11:58:57;;;;;;;4.18;0.63;;;25.80;87.30;;;;;;5067142;28;20033;-88
2022/07/25 12:01:24;;;;;;;5.20;0.70;;;25.90;87.10;;;;;;5064329;28;20080;-89
2022/07/25 12:03:50;;;;;;;4.50;0.70;;;25.90;87.30;;;;;;5036426;28;20032;-88
2022/07/25 12:06:15;;;;;;;5.95;1.02;;;26.00;87.50;;;;;;5055987;28;20393;-90
2022/07/25 12:08:42;;;;;;;3.30;0.60;;;26.10;87.30;;;;;;5037536;28;20025;-92
2022/07/25 12:11:19;;;;;;;6.45;0.80;;;26.30;87.10;;;;;;5037714;28;20063;-90
2022/07/25 12:13:45;;;;;;;3.72;0.52;;;26.30;86.20;;;;;;5033720;28;20030;-91
2022/07/25 12:16:11;;;;;;;4.40;0.60;;;26.20;85.90;;;;;;5027966;28;20032;-94
2022/07/25 12:18:37;;;;;;;4.32;0.65;;;26.10;85.10;;;;;;5036781;28;20822;-91
2022/07/25 12:21:02;;;;;;;2.80;0.60;;;26.10;85.90;;;;;;5037070;28;20032;-91
2022/07/25 12:23:28;;;;;;;8.13;1.05;;;26.10;85.10;;;;;;5035369;28;20029;-92
2022/07/25 12:25:53;;;;;;;7.05;0.80;;;26.10;85.10;;;;;;5033879;28;20044;-92
2022/07/25 12:28:19;;;;;;;3.53;0.77;;;26.10;84.90;;;;;;5053608;28;20032;-92
2022/07/25 12:30:46;;;;;;;2.13;0.70;;;26.10;84.80;;;;;;5051563;28;20025;-91
2022/07/25 12:33:12;;;;;;;2.90;0.60;;;26.10;85.10;;;;;;5043435;28;20028;-89
2022/07/25 12:35:40;;;;;;;5.82;0.80;;;26.00;85.60;;;;;;5035103;28;20082;-91
2022/07/25 12:38:05;;;;;;;4.78;1.55;;;26.00;85.90;;;;;;5061675;28;20089;-89
2022/07/25 12:40:31;;;;;;;3.67;0.90;;;25.90;86.10;;;;;;5045014;28;20119;-91
2022/07/25 12:42:57;;;;;;;5.50;0.80;;;25.70;86.60;;;;;;5057025;28;20028;-90
2022/07/25 12:45:23;;;;;;;7.32;1.40;;;25.50;87.50;;;;;;5035900;28;20029;-91
2022/07/25 12:47:49;;;;;;;8.57;1.17;;;25.10;88.50;;;;;;5041947;28;20052;-91